createdAt,value
2017-12-28T00:00:13.580Z,98569.83
2017-12-28T00:02:44.126Z,98574.09
2017-12-28T00:05:11.888Z,98583.85
2017-12-28T00:07:39.843Z,98584.02
2017-12-28T00:10:07.605Z,98595.92
2017-12-28T00:12:35.317Z,98596.48
2017-12-28T00:15:03.061Z,98598.67
2017-12-28T00:17:30.830Z,98604.03
2017-12-28T00:19:58.576Z,98616.99
2017-12-28T00:22:26.289Z,98627.72
2017-12-28T00:24:55.016Z,98630.69
2017-12-28T00:27:22.835Z,98639.62
2017-12-28T00:29:50.645Z,98640.72
2017-12-28T00:32:18.627Z,98645.22
2017-12-28T00:34:46.396Z,98656.72
2017-12-28T00:37:14.149Z,98661.39
2017-12-28T00:39:41.828Z,98660.13
2017-12-28T00:42:09.527Z,98665.97
2017-12-28T00:44:37.278Z,98664.80
2017-12-28T00:47:05.500Z,98655.47
2017-12-28T00:49:33.591Z,98655.87
2017-12-28T00:52:01.601Z,98656.48
2017-12-28T00:54:29.348Z,98652.09
2017-12-28T00:56:57.020Z,98657.61
2017-12-28T00:59:24.864Z,98661.95
2017-12-28T01:01:52.606Z,98666.20
2017-12-28T01:04:20.315Z,98676.15
2017-12-28T01:06:48.345Z,98680.16
2017-12-28T01:09:16.314Z,98680.31
2017-12-28T01:11:46.848Z,98680.71
2017-12-28T01:14:14.608Z,98679.53
2017-12-28T01:16:42.335Z,98682.59
2017-12-28T01:19:10.358Z,98693.00
2017-12-28T01:21:38.430Z,98706.09
2017-12-28T01:24:06.119Z,98714.98
2017-12-28T01:26:33.878Z,98708.04
2017-12-28T01:29:01.810Z,98713.16
2017-12-28T01:31:29.481Z,98710.97
2017-12-28T01:33:57.666Z,98710.02
2017-12-28T01:36:25.855Z,98713.26
2017-12-28T01:38:53.626Z,98713.48
2017-12-28T01:41:21.464Z,98708.98
2017-12-28T01:43:49.304Z,98730.00
2017-12-28T01:46:17.004Z,98725.55
2017-12-28T01:51:17.593Z,98731.69
2017-12-28T01:53:45.390Z,98733.41
2017-12-28T01:56:13.186Z,98745.86
2017-12-28T01:58:41.190Z,98749.81
2017-12-28T02:01:08.893Z,98753.05
2017-12-28T02:03:36.629Z,98760.28
2017-12-28T02:06:04.353Z,98755.80
2017-12-28T02:08:33.205Z,98757.07
2017-12-28T02:11:00.901Z,98758.70
2017-12-28T02:13:28.955Z,98750.44
2017-12-28T02:15:56.923Z,98752.31
2017-12-28T02:18:24.680Z,98758.71
2017-12-28T02:20:52.381Z,98756.48
2017-12-28T02:23:20.198Z,98761.55
2017-12-28T02:25:47.901Z,98770.52
2017-12-28T02:28:16.077Z,98775.08
2017-12-28T02:30:43.854Z,98786.80
2017-12-28T02:33:11.591Z,98793.03
2017-12-28T02:35:39.779Z,98800.10
2017-12-28T02:38:07.453Z,98811.78
2017-12-28T02:40:35.619Z,98823.67
2017-12-28T02:43:03.349Z,98823.67
2017-12-28T02:45:31.037Z,98829.03
2017-12-28T02:47:58.779Z,98832.49
2017-12-28T02:50:26.550Z,98831.38
2017-12-28T02:52:54.276Z,98839.02
2017-12-28T02:55:22.280Z,98835.59
2017-12-28T02:57:50.361Z,98837.48
2017-12-28T03:00:18.020Z,98835.93
2017-12-28T03:02:46.133Z,98834.00
2017-12-28T03:05:14.412Z,98843.00
2017-12-28T03:07:42.133Z,98841.33
2017-12-28T03:10:10.470Z,98846.75
2017-12-28T03:12:38.177Z,98850.98
2017-12-28T03:15:05.890Z,98853.13
2017-12-28T03:17:33.716Z,98869.27
2017-12-28T03:20:01.884Z,98867.09
2017-12-28T03:22:29.750Z,98873.56
2017-12-28T03:25:04.097Z,98889.75
2017-12-28T03:27:37.128Z,98892.08
2017-12-28T03:30:05.032Z,98884.27
2017-12-28T03:32:32.825Z,98889.77
2017-12-28T03:35:00.566Z,98892.52
2017-12-28T03:37:31.161Z,98899.02
2017-12-28T03:39:59.031Z,98900.85
2017-12-28T03:42:27.575Z,98900.85
2017-12-28T03:44:56.674Z,98899.17
2017-12-28T03:47:25.026Z,98900.45
2017-12-28T03:49:53.189Z,98905.18
2017-12-28T03:52:21.040Z,98916.72
2017-12-28T03:54:48.818Z,98917.47
2017-12-28T03:57:16.787Z,98919.74
2017-12-28T03:59:44.484Z,98929.89
2017-12-28T04:02:13.779Z,98935.80
2017-12-28T04:04:43.107Z,98946.10
2017-12-28T04:07:10.912Z,98945.63
2017-12-28T04:09:38.603Z,98954.23
2017-12-28T04:12:06.399Z,98964.47
2017-12-28T04:14:34.213Z,98980.06
2017-12-28T04:17:01.996Z,98972.03
2017-12-28T04:19:29.717Z,98974.50
2017-12-28T04:21:57.515Z,98976.77
2017-12-28T04:24:25.301Z,98974.28
2017-12-28T04:26:53.050Z,98982.78
2017-12-28T04:29:21.845Z,98989.58
2017-12-28T04:31:49.587Z,98981.55
2017-12-28T04:34:17.342Z,98986.59
2017-12-28T04:36:45.144Z,98985.41
2017-12-28T04:39:12.915Z,98988.48
2017-12-28T04:41:40.647Z,98988.73
2017-12-28T04:44:08.714Z,98985.72
2017-12-28T04:46:36.461Z,98990.97
2017-12-28T04:49:04.193Z,98989.38
2017-12-28T04:51:31.978Z,98989.69
2017-12-28T04:53:59.737Z,98982.91
2017-12-28T04:56:27.604Z,98991.30
2017-12-28T04:58:55.330Z,98990.77
2017-12-28T05:01:23.077Z,98996.33
2017-12-28T05:03:50.948Z,98997.36
2017-12-28T05:06:18.773Z,99001.33
2017-12-28T05:08:46.571Z,99007.50
2017-12-28T05:11:15.921Z,99010.45
2017-12-28T05:13:43.696Z,99014.52
2017-12-28T05:16:11.808Z,99019.92
2017-12-28T05:18:39.627Z,99025.64
2017-12-28T05:21:07.629Z,99026.76
2017-12-28T05:23:36.814Z,99033.65
2017-12-28T05:26:04.547Z,99041.33
2017-12-28T05:28:32.233Z,99038.75
2017-12-28T05:31:00.042Z,99043.27
2017-12-28T05:33:27.710Z,99044.20
2017-12-28T05:35:56.629Z,99046.63
2017-12-28T05:38:25.017Z,99048.17
2017-12-28T05:40:52.698Z,99047.44
2017-12-28T05:43:20.418Z,99055.57
2017-12-28T05:45:48.140Z,99055.22
2017-12-28T05:48:15.907Z,99059.78
2017-12-28T05:50:43.789Z,99066.38
2017-12-28T05:53:11.546Z,99066.78
2017-12-28T05:55:39.315Z,99070.44
2017-12-28T05:58:07.077Z,99073.36
2017-12-28T06:00:34.806Z,99076.77
2017-12-28T06:03:02.553Z,99074.23
2017-12-28T06:05:30.327Z,99079.34
2017-12-28T06:07:58.077Z,99088.52
2017-12-28T06:10:27.346Z,99086.25
2017-12-28T06:12:55.637Z,99095.20
2017-12-28T06:15:25.599Z,99096.39
2017-12-28T06:17:53.429Z,99099.62
2017-12-28T06:20:30.642Z,99101.48
2017-12-28T06:22:58.367Z,99105.39
2017-12-28T06:25:26.160Z,99107.17
2017-12-28T06:27:53.958Z,99112.62
2017-12-28T06:30:21.847Z,99115.45
2017-12-28T06:32:56.116Z,99116.20
2017-12-28T06:38:27.175Z,99117.24
2017-12-28T06:40:54.918Z,99120.07
2017-12-28T06:43:22.598Z,99124.75
2017-12-28T06:45:50.659Z,99122.59
2017-12-28T06:48:18.390Z,99133.59
2017-12-28T06:50:46.193Z,99132.05
2017-12-28T06:53:13.978Z,99130.90
2017-12-28T06:55:41.710Z,99145.20
2017-12-28T06:58:09.474Z,99146.43
2017-12-28T07:00:37.149Z,99148.63
2017-12-28T07:03:04.976Z,99151.97
2017-12-28T07:05:32.857Z,99158.28
2017-12-28T07:08:00.602Z,99162.63
2017-12-28T07:10:28.408Z,99161.63
2017-12-28T07:12:56.446Z,99170.83
2017-12-28T07:15:24.189Z,99177.81
2017-12-28T07:17:52.203Z,99187.22
2017-12-28T07:20:20.779Z,99189.22
2017-12-28T07:22:48.548Z,99198.95
2017-12-28T07:25:16.339Z,99203.06
2017-12-28T07:27:44.041Z,99204.81
2017-12-28T07:30:12.020Z,99210.38
2017-12-28T07:32:40.569Z,99216.05
2017-12-28T07:35:13.559Z,99225.59
2017-12-28T07:37:42.290Z,99226.18
2017-12-28T07:40:10.062Z,99229.07
2017-12-28T07:42:37.792Z,99233.72
2017-12-28T07:45:05.540Z,99230.85
2017-12-28T07:47:33.210Z,99236.97
2017-12-28T07:50:01.108Z,99235.09
2017-12-28T07:52:28.987Z,99234.65
2017-12-28T07:54:56.793Z,99241.89
2017-12-28T07:57:26.034Z,99243.53
2017-12-28T07:59:53.729Z,99245.28
2017-12-28T08:02:21.678Z,99243.17
2017-12-28T08:04:49.322Z,99248.33
2017-12-28T08:07:18.162Z,99247.39
2017-12-28T08:09:45.920Z,99244.72
2017-12-28T08:12:13.716Z,99244.80
2017-12-28T08:14:41.556Z,99246.64
2017-12-28T08:17:09.294Z,99246.64
2017-12-28T08:19:37.088Z,99246.34
2017-12-28T08:22:04.816Z,99252.11
2017-12-28T08:24:34.538Z,99257.34
2017-12-28T08:27:03.518Z,99259.98
2017-12-28T08:29:31.459Z,99262.66
2017-12-28T08:31:59.378Z,99262.95
2017-12-28T08:34:27.222Z,99262.80
2017-12-28T08:36:58.789Z,99267.59
2017-12-28T08:39:27.082Z,99268.22
2017-12-28T08:42:02.659Z,99265.35
2017-12-28T08:44:35.544Z,99264.91
2017-12-28T08:47:04.422Z,99270.89
2017-12-28T08:49:32.274Z,99272.84
2017-12-28T08:52:01.154Z,99269.67
2017-12-28T08:54:34.698Z,99266.02
2017-12-28T08:57:02.408Z,99270.47
2017-12-28T08:59:30.143Z,99266.67
2017-12-28T09:01:58.702Z,99271.02
2017-12-28T09:04:27.774Z,99276.77
2017-12-28T09:06:56.568Z,99280.19
2017-12-28T09:09:24.319Z,99282.97
2017-12-28T09:23:50.365Z,99296.38
2017-12-28T09:26:19.396Z,99298.70
2017-12-28T09:28:49.203Z,99309.76
2017-12-28T09:31:16.915Z,99308.12
2017-12-28T09:33:44.637Z,99307.39
2017-12-28T09:36:12.391Z,99309.41
2017-12-28T09:38:40.666Z,99317.08
2017-12-28T09:41:08.581Z,99315.48
2017-12-28T09:43:36.741Z,99311.98
2017-12-28T09:46:04.905Z,99305.65
2017-12-28T09:48:32.862Z,99308.59
2017-12-28T09:51:00.523Z,99310.47
2017-12-28T09:53:28.327Z,99304.91
2017-12-28T09:55:57.889Z,99318.06
2017-12-28T09:58:26.499Z,99318.12
2017-12-28T10:00:54.290Z,99324.72
2017-12-28T10:03:23.245Z,99321.03
2017-12-28T10:05:55.654Z,99322.27
2017-12-28T10:08:30.644Z,99322.58
2017-12-28T10:10:58.433Z,99326.52
2017-12-28T10:13:28.737Z,99323.75
2017-12-28T10:15:56.504Z,99330.04
2017-12-28T10:18:33.210Z,99327.00
2017-12-28T10:21:01.962Z,99332.82
2017-12-28T10:23:29.683Z,99325.61
2017-12-28T10:26:00.097Z,99328.19
2017-12-28T10:31:00.598Z,99327.17
2017-12-28T10:33:28.385Z,99332.06
2017-12-28T10:35:56.904Z,99335.42
2017-12-28T10:38:24.689Z,99333.65
2017-12-28T10:40:52.921Z,99335.41
2017-12-28T10:43:23.494Z,99336.64
2017-12-28T10:45:52.260Z,99341.80
2017-12-28T10:48:19.960Z,99346.74
2017-12-28T10:53:28.521Z,99346.41
2017-12-28T10:55:57.480Z,99342.83
2017-12-28T10:58:26.600Z,99343.09
2017-12-28T11:01:05.474Z,99347.62
2017-12-28T11:03:34.299Z,99345.39
2017-12-28T11:06:04.679Z,99341.53
2017-12-28T11:08:35.900Z,99339.28
2017-12-28T11:11:04.564Z,99344.84
2017-12-28T11:16:17.834Z,99350.86
2017-12-28T11:18:48.708Z,99346.68
2017-12-28T11:21:16.702Z,99350.45
2017-12-28T11:23:44.630Z,99341.25
2017-12-28T11:26:12.761Z,99352.80
2017-12-28T11:28:40.704Z,99357.00
2017-12-28T11:31:08.928Z,99353.13
2017-12-28T11:33:39.804Z,99354.25
2017-12-28T11:36:09.267Z,99354.53
2017-12-28T11:38:39.245Z,99356.29
2017-12-28T11:41:08.901Z,99360.45
2017-12-28T11:43:36.830Z,99364.69
2017-12-28T11:46:04.613Z,99368.00
2017-12-28T11:48:32.708Z,99366.03
2017-12-28T11:51:01.615Z,99373.90
2017-12-28T11:53:31.441Z,99376.17
2017-12-28T11:56:07.783Z,99379.67
2017-12-28T11:58:41.292Z,99380.83
2017-12-28T12:01:13.083Z,99378.92
2017-12-28T12:03:40.923Z,99384.95
2017-12-28T12:06:14.154Z,99385.77
2017-12-28T12:09:00.142Z,99385.14
2017-12-28T12:11:28.350Z,99393.39
2017-12-28T12:13:56.212Z,99390.43
2017-12-28T12:16:24.474Z,99396.92
2017-12-28T12:18:59.425Z,99398.11
2017-12-28T12:21:27.292Z,99397.33
2017-12-28T12:23:55.125Z,99402.92
2017-12-28T12:26:22.954Z,99399.45
2017-12-28T12:31:25.168Z,99411.88
2017-12-28T12:33:53.112Z,99417.37
2017-12-28T12:36:20.955Z,99411.49
2017-12-28T12:38:48.778Z,99417.12
2017-12-28T12:41:16.638Z,99417.42
2017-12-28T12:43:45.655Z,99418.57
2017-12-28T12:46:13.424Z,99423.47
2017-12-28T12:48:42.046Z,99422.44
2017-12-28T12:51:09.938Z,99429.16
2017-12-28T12:53:41.511Z,99422.07
2017-12-28T12:56:09.407Z,99426.30
2017-12-28T12:58:41.207Z,99427.53
2017-12-28T13:01:09.111Z,99433.19
2017-12-28T13:03:37.397Z,99422.89
2017-12-28T13:06:05.248Z,99430.39
2017-12-28T13:08:36.623Z,99428.17
2017-12-28T13:11:04.386Z,99439.69
2017-12-28T13:13:32.977Z,99438.88
2017-12-28T13:16:03.396Z,99459.70
2017-12-28T13:18:31.274Z,99450.06
2017-12-28T13:20:59.668Z,99464.17
2017-12-28T13:23:27.496Z,99470.53
2017-12-28T13:25:57.829Z,99465.17
2017-12-28T13:28:25.642Z,99475.80
2017-12-28T13:30:53.378Z,99472.66
2017-12-28T13:33:21.117Z,99477.45
2017-12-28T13:35:48.866Z,99472.06
2017-12-28T13:38:16.668Z,99476.23
2017-12-28T13:40:44.669Z,99477.47
2017-12-28T13:43:12.408Z,99478.91
2017-12-28T13:45:40.246Z,99482.40
2017-12-28T13:48:07.999Z,99464.81
2017-12-28T13:50:35.788Z,99466.11
2017-12-28T13:53:03.552Z,99471.22
2017-12-28T13:55:31.319Z,99485.38
2017-12-28T13:57:59.577Z,99490.59
2017-12-28T14:00:27.412Z,99490.70
2017-12-28T14:02:55.136Z,99496.02
2017-12-28T14:05:26.547Z,99498.44
2017-12-28T14:07:56.298Z,99490.75
2017-12-28T14:10:31.980Z,99504.80
2017-12-28T14:12:59.827Z,99501.33
2017-12-28T14:18:05.108Z,99505.84
2017-12-28T14:20:36.599Z,99510.06
2017-12-28T14:23:04.406Z,99511.89
2017-12-28T14:25:33.127Z,99516.16
2017-12-28T14:28:07.628Z,99518.20
2017-12-28T14:30:35.787Z,99516.53
2017-12-28T14:33:03.569Z,99518.91
2017-12-28T14:35:32.847Z,99520.67
2017-12-28T14:38:15.141Z,99527.34
2017-12-28T14:40:43.822Z,99546.98
2017-12-28T14:43:11.749Z,99547.66
2017-12-28T14:45:39.581Z,99545.08
2017-12-28T14:48:07.724Z,99546.09
2017-12-28T14:50:37.175Z,99549.52
2017-12-28T14:53:08.528Z,99558.39
2017-12-28T14:55:37.247Z,99553.44
2017-12-28T14:58:12.867Z,99554.77
2017-12-28T15:00:44.507Z,99560.59
2017-12-28T15:03:12.241Z,99556.41
2017-12-28T15:05:40.793Z,99568.23
2017-12-28T15:08:08.649Z,99574.44
2017-12-28T15:10:46.900Z,99578.24
2017-12-28T15:13:16.504Z,99583.34
2017-12-28T15:15:44.269Z,99597.89
2017-12-28T15:18:12.057Z,99605.78
2017-12-28T15:23:25.464Z,99612.09
2017-12-28T15:25:53.375Z,99623.28
2017-12-28T15:28:21.634Z,99624.48
2017-12-28T15:30:57.402Z,99625.46
2017-12-28T15:33:25.759Z,99633.81
2017-12-28T15:35:59.430Z,99611.55
2017-12-28T15:38:27.164Z,99604.59
2017-12-28T15:41:01.439Z,99607.60
2017-12-28T15:43:29.259Z,99612.73
2017-12-28T15:45:57.755Z,99612.36
2017-12-28T15:51:28.411Z,99624.86
2017-12-28T16:00:04.745Z,99635.84
2017-12-28T16:02:39.500Z,99643.58
2017-12-28T16:05:30.395Z,99642.34
2017-12-28T16:10:51.843Z,99641.61
2017-12-28T16:14:27.783Z,99647.04
2017-12-28T16:16:57.656Z,99650.50
2017-12-28T16:19:25.858Z,99657.05
2017-12-28T16:24:40.107Z,99669.27
2017-12-28T16:27:12.103Z,99679.66
2017-12-28T17:03:36.916Z,99721.47
2017-12-28T17:06:04.906Z,99724.56
2017-12-28T17:08:34.399Z,99728.88
2017-12-28T17:11:03.197Z,99730.94
2017-12-28T17:13:31.588Z,99733.39
2017-12-28T17:15:59.433Z,99746.91
2017-12-28T17:18:27.269Z,99743.92
2017-12-28T17:23:39.856Z,99750.07
2017-12-28T17:26:07.891Z,99748.83
2017-12-28T17:28:35.663Z,99765.70
2017-12-28T17:31:03.865Z,99764.08
2017-12-28T17:33:37.236Z,99762.01
2017-12-28T17:36:05.155Z,99766.55
2017-12-28T17:38:34.039Z,99759.48
2017-12-28T17:41:02.964Z,99766.61
2017-12-28T17:43:30.776Z,99755.05
2017-12-28T17:45:58.565Z,99756.37
2017-12-28T17:48:26.368Z,99762.25
2017-12-28T17:50:54.137Z,99766.59
2017-12-28T17:53:21.989Z,99775.98
2017-12-28T17:55:52.094Z,99786.99
2017-12-28T17:58:19.989Z,99789.29
2017-12-28T18:00:47.965Z,99799.94
2017-12-28T18:03:15.797Z,99806.49
2017-12-28T18:05:43.659Z,99804.16
2017-12-28T18:08:12.599Z,99793.01
2017-12-28T18:10:40.895Z,99804.47
2017-12-28T18:13:08.732Z,99801.31
2017-12-28T18:15:37.036Z,99802.67
2017-12-28T18:18:04.923Z,99819.29
2017-12-28T18:20:32.707Z,99826.13
2017-12-28T18:23:00.559Z,99820.72
2017-12-28T18:28:37.400Z,99834.84
2017-12-28T18:31:05.274Z,99833.53
2017-12-28T18:33:33.275Z,99834.22
2017-12-28T18:36:01.970Z,99841.20
2017-12-28T18:38:30.727Z,99852.30
2017-12-28T18:40:58.534Z,99853.52
2017-12-28T18:43:26.354Z,99855.35
2017-12-28T18:45:54.598Z,99853.70
2017-12-28T18:48:24.502Z,99851.58
2017-12-28T18:51:01.074Z,99836.73
2017-12-28T18:53:29.334Z,99837.95
2017-12-28T18:55:57.210Z,99832.63
2017-12-28T18:58:27.315Z,99836.37
2017-12-28T19:00:59.038Z,99843.88
2017-12-28T19:03:29.310Z,99846.41
2017-12-28T19:05:57.250Z,99844.00
2017-12-28T19:11:08.000Z,99844.09
2017-12-28T19:13:37.724Z,99857.59
2017-12-28T19:16:05.840Z,99852.09
2017-12-28T19:18:38.331Z,99852.25
2017-12-28T19:21:06.845Z,99861.45
2017-12-28T19:23:37.828Z,99859.71
2017-12-28T19:26:08.917Z,99863.30
2017-12-28T19:28:39.434Z,99865.02
2017-12-28T19:31:07.309Z,99868.94
2017-12-28T19:33:35.157Z,99866.77
2017-12-28T19:36:02.971Z,99874.59
2017-12-28T19:38:30.811Z,99871.13
2017-12-28T19:40:58.757Z,99877.94
2017-12-28T19:43:26.655Z,99886.33
2017-12-28T19:45:54.782Z,99888.20
2017-12-28T19:48:24.481Z,99892.19
2017-12-28T19:50:53.661Z,99890.42
2017-12-28T19:53:23.457Z,99895.78
2017-12-28T19:55:57.951Z,99898.45
2017-12-28T19:58:28.438Z,99909.05
2017-12-28T20:01:02.627Z,99904.39
2017-12-28T20:06:03.299Z,99915.10
2017-12-28T20:08:36.292Z,99913.09
2017-12-28T20:11:05.562Z,99904.50
2017-12-28T20:13:33.564Z,99911.34
2017-12-28T20:16:03.361Z,99909.34
2017-12-28T20:18:34.081Z,99910.63
2017-12-28T20:21:02.426Z,99914.95
2017-12-28T20:23:31.750Z,99916.03
2017-12-28T20:26:00.834Z,99912.59
2017-12-28T20:28:31.362Z,99920.36
2017-12-28T20:31:01.742Z,99917.52
2017-12-28T20:33:34.609Z,99930.09
2017-12-28T20:36:04.566Z,99926.05
2017-12-28T20:38:33.152Z,99928.66
2017-12-28T20:41:02.494Z,99928.52
2017-12-28T20:43:32.919Z,99938.03
2017-12-28T20:46:02.367Z,99938.03
2017-12-28T20:48:36.227Z,99941.64
2017-12-28T20:51:05.063Z,99942.09
2017-12-28T20:56:06.350Z,99944.77
2017-12-28T20:58:36.362Z,99947.48
2017-12-28T21:01:16.192Z,99950.96
2017-12-28T21:03:44.785Z,99946.45
2017-12-28T21:06:21.866Z,99964.00
2017-12-28T21:08:52.390Z,99961.83
2017-12-28T21:11:21.894Z,99964.95
2017-12-28T21:13:49.877Z,99951.31
2017-12-28T21:22:26.162Z,99959.91
2017-12-28T21:24:54.724Z,99956.30
2017-12-28T21:27:23.689Z,99959.73
2017-12-28T21:29:59.821Z,99970.18
2017-12-28T21:32:30.533Z,99971.91
2017-12-28T21:35:00.785Z,99975.53
2017-12-28T21:37:28.908Z,99983.38
2017-12-28T21:39:56.975Z,99984.31
2017-12-28T21:42:27.053Z,99978.81
2017-12-28T21:44:55.862Z,99977.90
2017-12-28T21:47:25.241Z,99980.46
2017-12-28T21:49:53.454Z,99993.00
2017-12-28T21:52:21.672Z,99994.63
2017-12-28T21:54:49.602Z,99994.63
2017-12-28T21:57:17.594Z,99999.31
2017-12-28T21:59:45.475Z,100006.23
2017-12-28T22:02:13.408Z,100005.41
2017-12-28T22:04:41.356Z,100006.11
2017-12-28T22:07:09.596Z,100011.34
2017-12-28T22:09:38.691Z,100010.24
2017-12-28T22:12:09.834Z,100021.91
2017-12-28T22:14:38.676Z,100015.70
2017-12-28T22:17:09.698Z,100020.42
2017-12-28T22:19:40.906Z,100018.92
2017-12-28T22:22:10.743Z,100025.62
2017-12-28T22:24:40.783Z,100027.11
2017-12-28T22:27:10.845Z,100020.55
2017-12-28T22:29:40.156Z,100029.78
2017-12-28T22:32:09.704Z,100022.18
2017-12-28T22:34:37.741Z,100038.09
2017-12-28T22:37:05.525Z,100040.78
2017-12-28T22:39:34.274Z,100049.19
2017-12-28T22:42:03.740Z,100058.84
2017-12-28T22:44:31.735Z,100056.30
2017-12-28T22:47:00.026Z,100054.31
2017-12-28T22:49:27.953Z,100058.47
2017-12-28T22:51:56.446Z,100064.63
2017-12-28T22:54:24.447Z,100059.70
2017-12-28T22:56:53.364Z,100064.37
2017-12-28T22:59:21.633Z,100064.14
2017-12-28T23:01:49.504Z,100076.70
2017-12-28T23:04:17.705Z,100074.85
2017-12-28T23:06:45.625Z,100081.69
2017-12-28T23:09:13.804Z,100081.41
2017-12-28T23:11:42.506Z,100076.86
2017-12-28T23:14:10.553Z,100072.83
2017-12-28T23:16:38.425Z,100085.28
2017-12-28T23:19:06.444Z,100075.24
2017-12-28T23:21:35.330Z,100089.30
2017-12-28T23:24:04.346Z,100096.95
2017-12-28T23:26:32.201Z,100097.48
2017-12-28T23:29:00.267Z,100102.16
2017-12-28T23:31:27.998Z,100104.45
2017-12-28T23:33:55.803Z,100100.67
2017-12-28T23:36:23.770Z,100097.34
2017-12-28T23:38:51.612Z,100104.97
2017-12-28T23:41:19.397Z,100099.24
2017-12-28T23:43:47.639Z,100101.92
2017-12-28T23:46:15.427Z,100108.34
2017-12-28T23:48:43.236Z,100107.41
2017-12-28T23:51:11.441Z,100107.89
2017-12-28T23:53:39.603Z,100105.25
2017-12-28T23:56:07.504Z,100109.26
2017-12-28T23:58:35.288Z,100113.14
